Time;durP1;ratioP1;P1;durP2;ratioP2;P2;SDS_P1;SDS_P2;PMS_P1;PMS_P2;Temp;Humidity;BMP_temperature;BMP_pressure;BME280_temperature;BME280_humidity;BME280_pressure;Samples;Min_cycle;Max_cycle;Signal;HPM_P1;HPM_P2
2022/07/13 00:00:59;;;;;;;4.72;1.50;;;;;;;14.83;78.52;99046.77;1734327;82;21058;-80
2022/07/13 00:03:26;;;;;;;2.05;1.27;;;;;;;14.77;78.74;99044.95;1725949;80;21205;-79
2022/07/13 00:05:52;;;;;;;3.60;1.30;;;;;;;14.74;78.79;99051.55;1729726;80;21034;-75
2022/07/13 00:08:18;;;;;;;2.02;1.50;;;;;;;14.81;78.26;99042.16;1718283;82;21020;-78
2022/07/13 00:10:45;;;;;;;1.32;1.22;;;;;;;14.81;78.31;99026.64;1713962;81;20981;-79
2022/07/13 00:13:13;;;;;;;2.05;1.75;;;;;;;14.72;78.63;99050.95;1720175;82;21107;-76
2022/07/13 00:15:40;;;;;;;1.90;1.70;;;;;;;14.68;78.68;99024.34;1724800;82;21133;-77
2022/07/13 00:18:06;;;;;;;2.17;1.52;;;;;;;14.77;78.54;99030.77;1716154;82;21579;-76
2022/07/13 00:20:32;;;;;;;1.50;1.40;;;;;;;14.74;78.63;99038.19;1719637;81;21063;-77
2022/07/13 00:23:00;;;;;;;2.10;1.42;;;;;;;14.67;78.71;99054.77;1708335;82;21043;-77
2022/07/13 00:25:26;;;;;;;1.50;1.40;;;;;;;14.66;78.84;99008.19;1727105;82;21081;-77
2022/07/13 00:27:53;;;;;;;3.55;1.70;;;;;;;14.72;78.56;99034.91;1725567;82;21600;-81
2022/07/13 00:30:20;;;;;;;3.30;1.40;;;;;;;14.68;78.73;99005.63;1697471;82;21056;-78
2022/07/13 00:32:48;;;;;;;2.10;1.42;;;;;;;14.62;78.86;99005.14;1711246;82;21067;-81
2022/07/13 00:35:14;;;;;;;2.77;1.65;;;;;;;14.58;79.06;98995.88;1725366;82;21094;-78
2022/07/13 00:37:41;;;;;;;2.10;1.50;;;;;;;14.65;79.02;99008.72;1710868;81;21946;-78
2022/07/13 00:40:08;;;;;;;4.28;1.98;;;;;;;14.65;78.99;98997.20;1711534;81;21122;-79
2022/07/13 00:42:36;;;;;;;1.65;1.20;;;;;;;14.61;79.14;98995.47;1719447;82;21011;-78
2022/07/13 00:45:03;;;;;;;3.37;1.40;;;;;;;14.56;79.41;98987.23;1727858;82;20991;-77
2022/07/13 00:47:32;;;;;;;2.20;1.45;;;;;;;14.61;79.29;99022.20;1711202;81;21320;-80
2022/07/13 00:50:01;;;;;;;1.40;1.30;;;;;;;14.59;79.46;98978.83;1723272;81;21006;-79
2022/07/13 00:52:27;;;;;;;2.40;1.45;;;;;;;14.52;79.81;98982.01;1690846;82;21073;-78
2022/07/13 00:54:54;;;;;;;1.12;1.02;;;;;;;14.52;79.69;98966.78;1709073;82;21026;-79
2022/07/13 00:57:20;;;;;;;2.47;1.57;;;;;;;14.58;79.47;98963.00;1719442;82;21046;-79
2022/07/13 00:59:48;;;;;;;3.42;1.60;;;;;;;14.54;79.85;98957.22;1704996;82;21110;-80
2022/07/13 01:02:15;;;;;;;2.35;1.50;;;;;;;14.46;79.54;98957.47;1717088;83;21057;-79
2022/07/13 01:04:41;;;;;;;3.20;1.70;;;;;;;14.50;79.63;98962.69;1713912;82;21550;-81
2022/07/13 01:07:08;;;;;;;6.15;1.65;;;;;;;14.58;79.14;98946.96;1703946;82;21243;-82
2022/07/13 01:09:35;;;;;;;3.98;1.30;;;;;;;14.53;79.23;98955.08;1696535;83;21104;-78
2022/07/13 01:12:01;;;;;;;3.00;1.40;;;;;;;14.48;79.46;98946.86;1716353;83;21452;-79
2022/07/13 01:14:29;;;;;;;3.02;1.77;;;;;;;14.52;79.54;98952.09;1716881;83;21014;-78
2022/07/13 01:16:56;;;;;;;3.77;1.57;;;;;;;14.58;79.24;98949.11;1698867;81;21226;-80
2022/07/13 01:19:24;;;;;;;1.50;1.40;;;;;;;14.50;79.39;99008.13;1698572;81;21063;-79
2022/07/13 01:21:55;;;;;;;1.50;0.98;;;;;;;14.46;79.68;98969.50;1712205;81;20988;-79
2022/07/13 01:24:22;;;;;;;2.42;1.10;;;;;;;14.52;79.50;98956.62;1711888;83;21051;-77
2022/07/13 01:26:48;;;;;;;3.65;2.08;;;;;;;14.51;79.70;98937.62;1709661;83;21035;-79
2022/07/13 01:29:14;;;;;;;4.92;1.40;;;;;;;14.44;79.97;98951.52;1679645;83;21586;-80
2022/07/13 01:31:42;;;;;;;2.08;1.47;;;;;;;14.45;80.11;98940.63;1719915;83;21008;-80
2022/07/13 01:34:09;;;;;;;2.77;1.50;;;;;;;14.48;79.75;98960.23;1719588;81;21028;-78
2022/07/13 01:36:35;;;;;;;1.92;1.40;;;;;;;14.44;80.21;98955.01;1706686;83;21082;-77
2022/07/13 01:39:04;;;;;;;1.42;1.20;;;;;;;14.38;80.59;98939.83;1697682;83;21567;-78
2022/07/13 01:41:30;;;;;;;1.45;1.30;;;;;;;14.44;80.59;98978.25;1703537;81;21114;-81
2022/07/13 01:43:57;;;;;;;2.12;1.30;;;;;;;14.47;80.76;98947.10;1702558;83;21015;-80
2022/07/13 01:46:28;;;;;;;2.30;1.37;;;;;;;14.39;80.84;98939.30;1710220;83;21075;-80
2022/07/13 01:48:54;;;;;;;2.05;1.32;;;;;;;14.30;81.39;98939.55;1700830;83;21074;-82
2022/07/13 01:51:21;;;;;;;2.25;1.27;;;;;;;14.33;81.71;98933.80;1707560;83;21026;-77
2022/07/13 01:53:47;;;;;;;1.85;1.40;;;;;;;14.30;82.20;98926.20;1694909;83;21119;-78
2022/07/13 01:56:14;;;;;;;3.65;1.30;;;;;;;14.22;82.35;98926.97;1696168;83;21034;-80
2022/07/13 01:58:43;;;;;;;1.32;1.20;;;;;;;14.21;82.94;98947.49;1720478;81;21487;-77
2022/07/13 02:01:10;;;;;;;3.50;1.80;;;;;;;14.21;83.33;98915.44;1710287;82;21081;-76
2022/07/13 02:03:37;;;;;;;4.47;1.60;;;;;;;14.11;83.90;98973.31;1725298;81;21057;-79
2022/07/13 02:06:05;;;;;;;2.20;1.60;;;;;;;14.02;84.55;98947.86;1737226;80;21071;-76
2022/07/13 02:08:32;;;;;;;2.62;1.50;;;;;;;14.01;85.02;98919.53;1745541;82;21041;-79
2022/07/13 02:11:00;;;;;;;2.42;1.35;;;;;;;13.87;86.86;98928.09;1755428;80;21080;-79
2022/07/13 02:13:26;;;;;;;3.75;2.10;;;;;;;13.80;87.36;98926.47;1720075;82;21038;-78
2022/07/13 02:15:53;;;;;;;1.55;1.42;;;;;;;13.78;87.52;98921.86;1733062;82;21028;-76
2022/07/13 02:18:21;;;;;;;1.95;1.37;;;;;;;13.67;87.83;98918.78;1727587;81;21083;-78
2022/07/13 02:20:48;;;;;;;1.85;1.57;;;;;;;13.57;88.94;98920.54;1786169;79;21041;-78
2022/07/13 02:23:15;;;;;;;1.52;1.40;;;;;;;13.53;89.59;98912.64;1784184;79;21104;-76
2022/07/13 02:25:43;;;;;;;3.65;1.50;;;;;;;13.54;89.54;98914.80;1780770;79;21546;-79
2022/07/13 02:28:12;;;;;;;5.30;1.40;;;;;;;13.45;89.70;98892.86;1768628;80;21035;-79
2022/07/13 02:30:38;;;;;;;1.40;1.30;;;;;;;13.43;90.31;98904.77;1778451;79;21269;-78
2022/07/13 02:33:07;;;;;;;2.20;1.65;;;;;;;13.47;90.05;98894.80;1794830;78;21520;-78
2022/07/13 02:35:34;;;;;;;2.02;1.40;;;;;;;13.46;89.98;98882.51;1781673;78;21494;-76
2022/07/13 02:38:01;;;;;;;1.90;1.15;;;;;;;13.42;90.39;98913.79;1787460;78;21007;-78
2022/07/13 02:40:28;;;;;;;5.50;1.60;;;;;;;13.45;90.39;98889.38;1773129;79;21030;-77
2022/07/13 02:42:55;;;;;;;1.57;1.25;;;;;;;13.40;91.19;98887.31;1775559;78;21202;-76
2022/07/13 02:45:21;;;;;;;2.15;1.15;;;;;;;13.36;91.48;98874.09;1771959;78;21085;-73
2022/07/13 02:47:48;;;;;;;4.08;1.55;;;;;;;13.40;91.24;98883.31;1797904;78;20995;-74
2022/07/13 02:50:15;;;;;;;2.75;1.57;;;;;;;13.42;91.28;98873.77;1794521;78;21048;-77
2022/07/13 02:52:41;;;;;;;4.47;1.40;;;;;;;13.35;91.43;98889.80;1784782;78;21061;-76
2022/07/13 02:55:08;;;;;;;1.77;1.42;;;;;;;13.34;91.49;98900.96;1781427;78;21115;-75
2022/07/13 02:57:36;;;;;;;5.03;1.47;;;;;;;13.40;91.81;98873.97;1799418;79;21015;-76
2022/07/13 03:00:07;;;;;;;2.30;1.47;;;;;;;13.34;91.48;98879.63;1785587;78;21105;-75
2022/07/13 03:02:35;;;;;;;1.20;1.10;;;;;;;13.34;91.71;98873.47;1785693;79;21104;-75
2022/07/13 03:05:02;;;;;;;1.95;1.20;;;;;;;13.40;91.12;98885.17;1791483;78;21548;-74
2022/07/13 03:07:29;;;;;;;2.30;1.30;;;;;;;13.36;91.10;98884.23;1781419;78;21311;-76
2022/07/13 03:09:57;;;;;;;1.17;1.02;;;;;;;13.34;91.66;98864.95;1778481;78;20971;-76
2022/07/13 03:12:25;;;;;;;2.70;1.55;;;;;;;13.39;91.49;98860.34;1791475;80;21529;-73
2022/07/13 03:14:52;;;;;;;1.30;1.20;;;;;;;13.42;91.44;98861.77;1782056;79;21065;-77
2022/07/13 03:17:18;;;;;;;2.62;1.40;;;;;;;13.33;90.99;98876.66;1781403;79;21026;-73
2022/07/13 03:19:45;;;;;;;2.08;1.20;;;;;;;13.38;91.20;98852.02;1772732;79;21587;-75
2022/07/13 03:22:14;;;;;;;1.47;1.37;;;;;;;13.42;90.76;98850.58;1769081;80;21093;-75
2022/07/13 03:24:42;;;;;;;1.50;1.20;;;;;;;13.37;91.32;98865.88;1775267;78;21077;-75
2022/07/13 03:27:09;;;;;;;2.77;1.30;;;;;;;13.38;91.36;98869.36;1772724;78;21568;-75
2022/07/13 03:29:35;;;;;;;3.83;1.40;;;;;;;13.43;91.15;98859.42;1790265;79;21050;-74
2022/07/13 03:32:02;;;;;;;1.95;1.45;;;;;;;13.44;91.28;98834.36;1785193;78;21850;-75
2022/07/13 03:34:28;;;;;;;1.57;1.37;;;;;;;13.43;91.63;98841.55;1776264;79;21565;-76
2022/07/13 03:36:57;;;;;;;2.67;1.40;;;;;;;13.50;91.35;98858.88;1772829;78;21026;-74
2022/07/13 03:39:24;;;;;;;3.17;1.22;;;;;;;13.52;90.93;98854.14;1765770;79;21019;-76
2022/07/13 03:41:51;;;;;;;1.47;1.07;;;;;;;13.51;91.04;98838.66;1784512;79;21077;-76
2022/07/13 03:44:18;;;;;;;1.57;1.37;;;;;;;13.46;91.37;98838.48;1786616;79;21901;-76
2022/07/13 03:46:45;;;;;;;1.60;1.32;;;;;;;13.53;91.15;98857.95;1771933;78;21104;-77
2022/07/13 03:49:12;;;;;;;2.00;1.40;;;;;;;13.56;91.05;98836.19;1781581;80;21034;-77
2022/07/13 03:51:40;;;;;;;1.92;1.30;;;;;;;13.50;91.28;98830.86;1794220;79;21022;-78
2022/07/13 03:54:07;;;;;;;1.95;1.00;;;;;;;13.56;91.46;98823.38;1787189;79;21562;-76
2022/07/13 03:56:35;;;;;;;2.05;1.62;;;;;;;13.62;91.31;98847.04;1761295;80;21406;-74
2022/07/13 03:59:01;;;;;;;1.80;1.30;;;;;;;13.64;90.97;98834.33;1786753;79;21711;-74
2022/07/13 04:01:30;;;;;;;2.02;1.25;;;;;;;13.59;91.19;98831.47;1774604;79;21057;-74
2022/07/13 04:03:58;;;;;;;2.40;1.72;;;;;;;13.63;91.27;98832.67;1779427;79;21061;-75
2022/07/13 04:06:25;;;;;;;1.37;1.27;;;;;;;13.59;91.19;98856.29;1778312;80;21717;-77
2022/07/13 04:08:52;;;;;;;1.60;1.35;;;;;;;13.56;91.04;98854.06;1793841;78;21150;-75
2022/07/13 04:11:18;;;;;;;1.85;1.30;;;;;;;13.65;90.78;98834.63;1784866;79;20990;-75
2022/07/13 04:13:46;;;;;;;1.62;1.40;;;;;;;13.64;90.84;98818.32;1762248;79;21048;-76
2022/07/13 04:16:14;;;;;;;1.32;1.05;;;;;;;13.64;90.98;98820.98;1782990;78;21073;-75
2022/07/13 04:18:41;;;;;;;5.12;1.55;;;;;;;13.68;90.99;98838.22;1718988;82;21018;-78
2022/07/13 04:21:10;;;;;;;1.87;1.47;;;;;;;13.70;91.16;98840.16;1724325;81;21203;-75
2022/07/13 04:23:37;;;;;;;1.92;1.27;;;;;;;13.66;91.77;98826.41;1757513;81;21014;-75
2022/07/13 04:26:06;;;;;;;3.08;1.40;;;;;;;13.67;91.66;98813.88;1748767;81;21057;-74
2022/07/13 04:28:32;;;;;;;2.72;1.92;;;;;;;13.65;91.89;98850.63;1755441;81;21014;-76
2022/07/13 04:30:59;;;;;;;1.77;1.37;;;;;;;13.59;92.22;98816.78;1752697;81;21062;-76
2022/07/13 04:33:28;;;;;;;1.87;1.20;;;;;;;13.64;92.37;98823.14;1746671;81;21209;-75
2022/07/13 04:35:54;;;;;;;3.12;1.57;;;;;;;13.67;92.41;98824.55;1754041;81;20990;-73
2022/07/13 04:38:21;;;;;;;1.98;1.20;;;;;;;13.67;92.35;98845.91;1754864;81;21600;-75
2022/07/13 04:40:48;;;;;;;4.47;1.60;;;;;;;13.64;92.47;98801.78;1748506;81;21037;-74
2022/07/13 04:43:15;;;;;;;1.50;1.40;;;;;;;13.61;92.97;98812.05;1741034;80;21332;-75
2022/07/13 04:45:42;;;;;;;3.58;1.90;;;;;;;13.65;92.95;98811.41;1733980;80;21104;-75
2022/07/13 04:48:09;;;;;;;1.62;1.52;;;;;;;13.64;92.96;98818.32;1792886;78;21007;-77
2022/07/13 04:50:35;;;;;;;1.62;1.15;;;;;;;13.59;93.39;98806.92;1787527;79;21014;-75
2022/07/13 04:53:02;;;;;;;1.30;1.20;;;;;;;13.63;93.17;98812.14;1782642;78;21505;-79
2022/07/13 04:55:37;;;;;;;1.22;1.12;;;;;;;13.69;93.15;98815.81;1782052;79;21101;-84
2022/07/13 04:58:07;;;;;;;1.60;1.32;;;;;;;13.70;92.91;98801.45;1797704;79;21618;-85
2022/07/13 05:00:35;;;;;;;2.92;1.20;;;;;;;13.65;93.12;98812.75;1782769;78;21084;-77
2022/07/13 05:03:01;;;;;;;1.72;1.27;;;;;;;13.71;92.41;98826.61;1785688;79;21009;-77
2022/07/13 05:05:31;;;;;;;1.67;1.30;;;;;;;13.67;92.55;98836.56;1769148;78;21071;-77
2022/07/13 05:08:00;;;;;;;2.00;1.17;;;;;;;13.68;92.87;98792.84;1789608;78;21061;-79
2022/07/13 05:10:30;;;;;;;1.22;1.10;;;;;;;13.72;92.90;98799.39;1776507;78;21049;-75
2022/07/13 05:12:57;;;;;;;3.20;1.12;;;;;;;13.73;92.33;98801.86;1760261;78;21049;-75
2022/07/13 05:15:23;;;;;;;2.10;1.22;;;;;;;13.73;92.69;98820.55;1772734;78;21053;-76
2022/07/13 05:17:50;;;;;;;2.65;1.40;;;;;;;13.70;92.98;98814.80;1765993;79;21013;-76
2022/07/13 05:20:17;;;;;;;1.45;1.00;;;;;;;13.76;92.56;98795.27;1768164;78;21108;-75
2022/07/13 05:22:46;;;;;;;1.40;1.30;;;;;;;13.84;92.63;98803.03;1768173;78;21158;-77
2022/07/13 05:25:12;;;;;;;2.35;1.15;;;;;;;13.82;92.33;98799.75;1778096;78;23172;-78
2022/07/13 05:27:39;;;;;;;1.40;1.30;;;;;;;13.84;91.83;98823.05;1794748;78;21056;-76
2022/07/13 05:30:08;;;;;;;1.15;1.02;;;;;;;13.92;92.19;98789.95;1781200;78;21025;-77
2022/07/13 05:32:34;;;;;;;3.17;1.62;;;;;;;13.92;92.32;98802.78;1783221;78;21077;-77
2022/07/13 05:35:01;;;;;;;1.20;1.10;;;;;;;13.87;92.84;98797.77;1796267;79;21202;-78
2022/07/13 05:37:28;;;;;;;3.12;1.37;;;;;;;13.87;93.61;98805.28;1784529;79;20975;-78
2022/07/13 05:39:55;;;;;;;3.62;1.15;;;;;;;13.86;93.60;98819.66;1783026;78;21120;-79
2022/07/13 05:42:22;;;;;;;2.87;1.30;;;;;;;13.83;93.89;98793.89;1777205;79;21077;-77
2022/07/13 05:44:48;;;;;;;2.12;1.12;;;;;;;13.76;94.27;98793.41;1770607;78;20990;-78
2022/07/13 05:47:15;;;;;;;1.10;1.00;;;;;;;13.76;94.57;98777.39;1787608;78;21115;-78
2022/07/13 05:49:42;;;;;;;3.00;1.15;;;;;;;13.77;94.63;98816.91;1712737;82;21652;-77
2022/07/13 05:52:09;;;;;;;1.40;1.12;;;;;;;13.76;95.17;98809.42;1791857;78;21073;-79
2022/07/13 05:54:36;;;;;;;1.20;1.10;;;;;;;13.75;95.30;98811.80;1783730;79;21026;-80
2022/07/13 05:57:04;;;;;;;1.95;1.22;;;;;;;13.73;96.46;98791.67;1784775;78;21024;-80
2022/07/13 05:59:33;;;;;;;1.05;1.00;;;;;;;13.72;97.63;98775.38;1798174;78;21558;-81
2022/07/13 06:02:00;;;;;;;2.17;1.40;;;;;;;13.72;98.09;98816.75;1786673;78;21021;-80
2022/07/13 06:04:27;;;;;;;1.92;1.00;;;;;;;13.70;98.57;98800.12;1794422;78;21010;-80
2022/07/13 06:06:53;;;;;;;1.70;1.30;;;;;;;13.64;99.71;98793.78;1792502;78;21033;-80
2022/07/13 06:09:19;;;;;;;1.32;1.20;;;;;;;13.57;100.00;98780.44;1780491;78;21115;-80
2022/07/13 06:11:46;;;;;;;2.12;1.30;;;;;;;13.51;100.00;98786.63;1790853;78;21195;-82
2022/07/13 06:14:13;;;;;;;1.32;1.22;;;;;;;13.49;100.00;98772.68;1779700;78;21066;-79
2022/07/13 06:16:41;;;;;;;4.12;1.60;;;;;;;13.47;100.00;98773.93;1753661;79;21045;-81
2022/07/13 06:19:09;;;;;;;1.25;0.98;;;;;;;13.46;100.00;98769.12;1752362;79;20975;-83
2022/07/13 06:21:35;;;;;;;1.40;1.20;;;;;;;13.43;100.00;98787.39;1791676;78;21030;-83
2022/07/13 06:24:03;;;;;;;2.70;1.00;;;;;;;13.42;100.00;98767.88;1786741;79;21497;-83
2022/07/13 06:26:31;;;;;;;1.20;1.00;;;;;;;13.43;100.00;98798.06;1793409;79;21002;-82
2022/07/13 06:28:58;;;;;;;1.20;1.10;;;;;;;13.42;100.00;98792.41;1789962;78;21018;-83
2022/07/13 06:31:24;;;;;;;1.15;1.05;;;;;;;13.42;100.00;98802.55;1780124;78;21554;-79
2022/07/13 06:33:52;;;;;;;1.80;1.15;;;;;;;13.40;100.00;98817.14;1786390;79;21003;-79
2022/07/13 06:36:19;;;;;;;2.02;1.50;;;;;;;13.41;100.00;98788.92;1786701;78;21177;-82
2022/07/13 06:38:45;;;;;;;1.47;1.37;;;;;;;13.39;100.00;98781.65;1790862;79;21561;-82
2022/07/13 06:41:13;;;;;;;1.40;1.25;;;;;;;13.43;100.00;98794.06;1783983;78;21049;-82
2022/07/13 06:43:40;;;;;;;1.50;1.27;;;;;;;13.45;100.00;98789.33;1710191;81;21130;-82
2022/07/13 06:46:07;;;;;;;2.98;1.32;;;;;;;13.51;100.00;98811.98;1783798;78;21053;-81
2022/07/13 06:48:37;;;;;;;1.30;1.20;;;;;;;13.55;100.00;98799.04;1782731;78;21328;-83
2022/07/13 06:51:06;;;;;;;1.50;1.30;;;;;;;13.55;100.00;98809.19;1784128;79;21091;-85
2022/07/13 06:53:33;;;;;;;1.75;1.22;;;;;;;13.59;100.00;98781.58;1797679;79;20994;-84
2022/07/13 06:55:59;;;;;;;1.52;1.42;;;;;;;13.63;100.00;98779.30;1788080;78;21019;-83
2022/07/13 06:58:26;;;;;;;1.92;1.30;;;;;;;13.68;100.00;98831.02;1773155;79;21006;-83
2022/07/13 07:00:52;;;;;;;1.65;1.27;;;;;;;13.74;100.00;98774.64;1791677;78;21060;-82
2022/07/13 07:03:19;;;;;;;2.40;1.40;;;;;;;13.81;100.00;98789.28;1782839;78;21109;-82
2022/07/13 07:05:47;;;;;;;1.52;1.30;;;;;;;13.81;100.00;98802.13;1780131;78;21116;-85
2022/07/13 07:08:13;;;;;;;1.40;1.30;;;;;;;13.82;100.00;98793.61;1782763;79;21034;-83
2022/07/13 07:10:40;;;;;;;1.92;1.17;;;;;;;13.77;100.00;98774.20;1778531;79;21573;-84
2022/07/13 07:13:06;;;;;;;1.40;1.30;;;;;;;13.78;100.00;98773.19;1764117;79;21167;-81
2022/07/13 07:15:34;;;;;;;1.75;1.40;;;;;;;13.82;100.00;98770.91;1779678;79;21101;-82
2022/07/13 07:18:01;;;;;;;3.72;1.47;;;;;;;13.88;100.00;98790.89;1789974;79;21033;-82
2022/07/13 07:20:30;;;;;;;4.03;1.85;;;;;;;13.92;100.00;98773.41;1770963;79;20980;-81
2022/07/13 07:22:56;;;;;;;1.85;1.70;;;;;;;13.96;100.00;98779.14;1774203;79;21070;-82
2022/07/13 07:25:23;;;;;;;1.65;1.30;;;;;;;13.98;100.00;98782.95;1776735;78;21193;-81
2022/07/13 07:27:50;;;;;;;1.57;1.20;;;;;;;14.03;100.00;98811.17;1780760;79;21542;-81
2022/07/13 07:30:18;;;;;;;2.25;1.40;;;;;;;14.05;100.00;98799.23;1781356;79;21018;-81
2022/07/13 07:32:45;;;;;;;1.72;1.00;;;;;;;14.08;100.00;98768.60;1765796;78;21026;-83
2022/07/13 07:35:11;;;;;;;2.05;1.30;;;;;;;14.10;100.00;98777.22;1776609;78;21089;-81
2022/07/13 07:37:39;;;;;;;2.00;1.37;;;;;;;14.11;100.00;98780.20;1780788;79;21069;-81
2022/07/13 07:40:07;;;;;;;1.50;1.40;;;;;;;14.12;100.00;98784.52;1790102;79;21010;-79
2022/07/13 07:42:35;;;;;;;2.00;1.30;;;;;;;14.10;100.00;98778.06;1782392;78;21061;-80
2022/07/13 07:45:05;;;;;;;1.92;1.70;;;;;;;14.08;100.00;98776.61;1772884;78;21078;-79
2022/07/13 07:47:32;;;;;;;1.37;1.25;;;;;;;14.07;100.00;98776.33;1782470;79;21030;-79
2022/07/13 07:49:58;;;;;;;2.33;1.47;;;;;;;14.05;100.00;98787.74;1785183;79;21193;-78
2022/07/13 07:52:25;;;;;;;1.62;1.40;;;;;;;14.03;100.00;98779.94;1783445;79;21058;-79
2022/07/13 07:54:52;;;;;;;1.98;1.50;;;;;;;14.07;100.00;98774.99;1782897;79;21005;-78
2022/07/13 07:57:18;;;;;;;1.70;1.60;;;;;;;14.09;100.00;98811.65;1786096;78;21036;-83
2022/07/13 07:59:45;;;;;;;2.92;1.52;;;;;;;14.12;100.00;98783.19;1783865;78;21135;-84
2022/07/13 08:02:14;;;;;;;1.85;1.65;;;;;;;14.14;100.00;98790.47;1796059;78;21027;-83
2022/07/13 08:04:40;;;;;;;2.75;1.45;;;;;;;14.18;100.00;98797.52;1790714;79;21035;-83
2022/07/13 08:07:07;;;;;;;1.60;1.45;;;;;;;14.16;100.00;98805.77;1790326;79;21512;-82
2022/07/13 08:09:35;;;;;;;1.80;1.25;;;;;;;14.13;100.00;98811.52;1772129;79;21073;-84
2022/07/13 08:12:04;;;;;;;2.08;1.25;;;;;;;14.08;100.00;98801.98;1771923;79;21068;-82
2022/07/13 08:14:32;;;;;;;2.87;1.50;;;;;;;14.03;100.00;98797.82;1768600;78;21026;-87
2022/07/13 08:17:00;;;;;;;2.45;1.32;;;;;;;13.99;100.00;98816.64;1781114;78;21026;-83
2022/07/13 08:19:26;;;;;;;1.52;1.30;;;;;;;13.92;100.00;98822.80;1782303;79;21033;-85
2022/07/13 08:25:58;;;;;;;1.25;1.15;;;;;;;13.79;100.00;98790.86;1823550;77;21020;-82
2022/07/13 08:28:25;;;;;;;1.85;1.40;;;;;;;13.78;100.00;98820.42;1823789;77;21102;-81
2022/07/13 08:30:52;;;;;;;1.80;1.27;;;;;;;13.78;100.00;98802.55;1829812;77;20914;-82
2022/07/13 08:38:34;;;;;;;1.30;1.10;;;;;;;13.78;100.00;98786.53;1819329;77;21060;-81
2022/07/13 08:38:35;;;;;;;1.22;1.12;;;;;;;13.79;100.00;98826.89;1824847;77;21010;-83
2022/07/13 08:41:05;;;;;;;1.85;1.20;;;;;;;13.78;100.00;98811.89;1825179;77;21890;-83
2022/07/13 08:43:33;;;;;;;1.95;1.22;;;;;;;13.80;100.00;98825.03;1825014;77;21078;-82
2022/07/13 08:46:06;;;;;;;3.60;1.40;;;;;;;13.82;100.00;98797.61;1839220;76;20977;-85
2022/07/13 08:48:35;;;;;;;1.60;1.15;;;;;;;13.89;100.00;98823.77;1823292;77;21628;-84
2022/07/13 08:51:03;;;;;;;1.45;1.30;;;;;;;13.87;100.00;98829.31;1823298;77;21517;-83
2022/07/13 08:53:31;;;;;;;1.75;1.25;;;;;;;13.91;100.00;98813.70;1825302;77;21121;-84
2022/07/13 08:55:58;;;;;;;2.50;1.30;;;;;;;13.95;100.00;98797.03;1803467;77;21056;-79
2022/07/13 08:58:25;;;;;;;2.75;1.30;;;;;;;14.02;100.00;98799.65;1828128;77;21025;-82
2022/07/13 09:00:52;;;;;;;1.00;1.00;;;;;;;14.09;100.00;98792.95;1824723;77;21072;-85
2022/07/13 09:03:18;;;;;;;2.83;1.60;;;;;;;14.15;100.00;98814.27;1832474;77;21033;-84
2022/07/13 09:05:45;;;;;;;1.35;1.20;;;;;;;14.22;100.00;98802.75;1820266;77;21790;-84
2022/07/13 09:08:13;;;;;;;2.25;1.10;;;;;;;14.29;100.00;98800.34;1820278;77;21019;-84
2022/07/13 09:11:00;;;;;;;1.37;1.10;;;;;;;14.33;100.00;98814.06;1821774;77;21087;-83
2022/07/13 09:13:42;;;;;;;1.30;0.85;;;;;;;14.39;100.00;98811.05;1808681;77;21041;-82
2022/07/13 09:16:18;;;;;;;2.37;1.10;;;;;;;14.43;100.00;98800.23;1827110;77;21731;-80
2022/07/13 09:18:47;;;;;;;1.27;1.00;;;;;;;14.47;100.00;98817.50;1816523;77;23480;-78
2022/07/13 09:21:14;;;;;;;1.80;1.10;;;;;;;14.47;100.00;98796.13;1820783;77;20998;-78
2022/07/13 09:23:41;;;;;;;4.67;1.20;;;;;;;14.52;100.00;98794.93;1815747;77;21024;-80
2022/07/13 09:26:08;;;;;;;1.52;1.25;;;;;;;14.54;100.00;98812.41;1826750;77;21006;-82
2022/07/13 09:28:45;;;;;;;4.15;1.35;;;;;;;14.58;100.00;98800.77;1821336;78;20926;-82
2022/07/13 09:31:13;;;;;;;2.72;1.00;;;;;;;14.60;100.00;98792.02;1827426;78;21535;-83
2022/07/13 09:33:41;;;;;;;0.95;0.80;;;;;;;14.62;100.00;98820.71;1830327;77;20982;-79
2022/07/13 09:36:18;;;;;;;0.93;0.90;;;;;;;14.64;99.75;98805.27;1821537;77;20998;-80
2022/07/13 09:38:46;;;;;;;1.15;1.02;;;;;;;14.65;99.32;98820.26;1820633;77;21009;-78
2022/07/13 09:41:24;;;;;;;2.95;1.15;;;;;;;14.66;99.26;98816.56;1830242;78;21021;-81
2022/07/13 09:46:56;;;;;;;1.32;1.15;;;;;;;14.70;99.50;98797.72;1831820;77;21036;-80
2022/07/13 09:49:40;;;;;;;1.37;1.00;;;;;;;14.73;98.66;98801.27;1823893;77;20997;-80
2022/07/13 09:52:07;;;;;;;1.35;1.22;;;;;;;14.76;98.94;98797.36;1821835;78;20993;-79
2022/07/13 09:54:38;;;;;;;2.00;1.00;;;;;;;14.80;98.40;98809.25;1823061;77;21029;-82
2022/07/13 09:57:08;;;;;;;2.22;1.10;;;;;;;14.83;97.76;98795.95;1822396;77;21061;-82
2022/07/13 09:59:42;;;;;;;2.22;1.00;;;;;;;14.86;98.39;98798.20;1817169;78;20962;-83
2022/07/13 10:02:09;;;;;;;1.00;1.00;;;;;;;14.87;97.45;98806.52;1815846;77;21097;-84
2022/07/13 10:04:36;;;;;;;1.22;1.07;;;;;;;14.91;97.73;98807.70;1823137;77;20943;-85
2022/07/13 10:07:05;;;;;;;1.30;1.10;;;;;;;14.93;96.90;98801.62;1830267;77;21001;-83
2022/07/13 10:09:32;;;;;;;2.05;1.20;;;;;;;14.98;97.10;98795.10;1819956;77;21165;-82
2022/07/13 10:11:59;;;;;;;1.67;1.17;;;;;;;14.98;96.85;98787.08;1807383;77;21009;-86
2022/07/13 10:14:27;;;;;;;1.42;1.12;;;;;;;15.02;97.32;98780.77;1760625;81;21035;-85
2022/07/13 10:17:01;;;;;;;2.08;1.10;;;;;;;15.03;96.58;98783.77;1762238;81;20969;-86
2022/07/13 10:19:29;;;;;;;1.17;1.00;;;;;;;15.08;96.24;98790.59;1761796;78;21077;-78
2022/07/13 10:22:30;;;;;;;2.00;1.10;;;;;;;15.11;96.19;98785.62;1760197;79;22076;-83
2022/07/13 10:24:58;;;;;;;1.30;1.20;;;;;;;15.16;95.92;98773.44;1712520;81;21046;-83
2022/07/13 10:27:30;;;;;;;1.25;1.10;;;;;;;15.16;95.65;98782.27;1713709;80;21041;-85
2022/07/13 10:30:01;;;;;;;1.30;0.80;;;;;;;15.22;95.70;98776.55;1714199;80;20998;-84
2022/07/13 10:32:40;;;;;;;1.30;1.20;;;;;;;15.22;94.55;98766.70;1719960;80;20996;-84
2022/07/13 10:35:09;;;;;;;1.30;1.20;;;;;;;15.25;95.25;98762.75;1743847;80;21077;-85
2022/07/13 10:38:02;;;;;;;1.35;1.15;;;;;;;15.28;95.74;98769.00;1727661;79;21002;-81
2022/07/13 10:40:30;;;;;;;1.55;1.30;;;;;;;15.30;95.67;98782.98;1708206;80;20991;-85
2022/07/13 10:43:05;;;;;;;1.30;1.20;;;;;;;15.32;95.71;98769.66;1711731;82;21064;-81
2022/07/13 10:45:48;;;;;;;2.55;1.20;;;;;;;15.34;95.67;98764.09;1710343;84;21167;-81
2022/07/13 10:48:34;;;;;;;1.70;1.27;;;;;;;15.34;95.02;98791.66;1701912;82;21299;-84
2022/07/13 10:51:01;;;;;;;3.45;1.35;;;;;;;15.38;95.38;98762.61;1702774;82;21620;-83
2022/07/13 10:53:50;;;;;;;1.10;0.98;;;;;;;15.41;95.14;98794.78;1712698;82;21089;-83
2022/07/13 10:56:19;;;;;;;1.45;1.32;;;;;;;15.41;94.47;98778.20;1711807;82;21029;-84
2022/07/13 10:58:49;;;;;;;1.47;1.37;;;;;;;15.43;94.87;98798.89;1713040;82;21073;-81
2022/07/13 11:01:43;;;;;;;1.10;1.00;;;;;;;15.45;94.93;98779.91;1707816;84;21203;-80
2022/07/13 11:04:13;;;;;;;1.32;1.10;;;;;;;15.42;94.46;98783.05;1719820;83;20997;-82
2022/07/13 11:06:40;;;;;;;1.60;1.10;;;;;;;15.46;94.64;98772.19;1722026;83;21073;-85
2022/07/13 11:09:19;;;;;;;1.67;1.00;;;;;;;15.46;94.67;98775.68;1705595;84;21318;-82
2022/07/13 11:11:50;;;;;;;2.08;1.30;;;;;;;15.45;95.13;98771.39;1705581;81;21067;-80
2022/07/13 11:14:42;;;;;;;2.12;1.22;;;;;;;15.44;94.83;98771.07;1682448;84;21806;-78
2022/07/13 11:17:17;;;;;;;2.08;1.35;;;;;;;15.44;94.79;98785.80;1711878;80;20962;-88
2022/07/13 11:20:03;;;;;;;2.50;1.52;;;;;;;15.42;94.90;98766.47;1684161;82;21116;-85
2022/07/13 11:25:55;;;;;;;2.30;1.77;;;;;;;15.40;95.25;98787.81;1620802;86;21105;-76
2022/07/13 11:28:36;;;;;;;3.37;1.72;;;;;;;15.41;95.49;98789.43;1696046;82;21271;-76
2022/07/13 11:31:04;;;;;;;1.72;1.50;;;;;;;15.40;94.21;98781.93;1716664;81;21075;-76
2022/07/13 11:33:31;;;;;;;1.27;1.17;;;;;;;15.37;94.08;98777.01;1701908;83;21097;-76
2022/07/13 11:36:00;;;;;;;1.47;1.05;;;;;;;15.36;93.32;98769.23;1724387;81;21087;-76
2022/07/13 11:38:35;;;;;;;2.15;1.22;;;;;;;15.40;93.73;98759.71;1691564;82;21049;-76
2022/07/13 11:41:01;;;;;;;2.15;1.27;;;;;;;15.44;93.96;98774.28;1701235;84;21192;-76
2022/07/13 11:43:28;;;;;;;1.30;1.02;;;;;;;15.48;94.20;98774.94;1688288;83;21088;-76
2022/07/13 11:45:54;;;;;;;2.27;1.20;;;;;;;15.53;94.17;98787.14;1703209;82;21123;-76
2022/07/13 11:48:24;;;;;;;1.67;1.32;;;;;;;15.55;94.07;98774.87;1711480;82;21041;-76
2022/07/13 11:50:52;;;;;;;1.20;1.07;;;;;;;15.49;93.96;98789.97;1704042;82;21046;-75